sensor_id;sensor_type;location;lat;lon;timestamp;pressure;altitude;pressure_sealevel;temperature;humidity
15529;BME280;7866;52.280;9.500;2022-11-24T00:03:25;99165.50;;;7.23;88.50
15529;BME280;7866;52.280;9.500;2022-11-24T00:08:26;99165.84;;;7.20;89.10
15529;BME280;7866;52.280;9.500;2022-11-24T00:13:28;99175.00;;;7.17;89.86
15529;BME280;7866;52.280;9.500;2022-11-24T00:18:31;99171.81;;;7.22;88.62
15529;BME280;7866;52.280;9.500;2022-11-24T00:23:33;99178.28;;;7.27;88.05
15529;BME280;7866;52.280;9.500;2022-11-24T00:28:36;99178.63;;;7.24;88.68
15529;BME280;7866;52.280;9.500;2022-11-24T00:33:39;99186.34;;;7.19;89.38
15529;BME280;7866;52.280;9.500;2022-11-24T00:38:41;99191.41;;;7.29;89.31
15529;BME280;7866;52.280;9.500;2022-11-24T00:43:43;99204.72;;;7.29;88.85
15529;BME280;7866;52.280;9.500;2022-11-24T00:48:46;99198.22;;;7.31;88.52
15529;BME280;7866;52.280;9.500;2022-11-24T00:53:48;99210.34;;;7.34;88.85
15529;BME280;7866;52.280;9.500;2022-11-24T00:58:50;99217.22;;;7.28;89.26
15529;BME280;7866;52.280;9.500;2022-11-24T01:03:53;99215.44;;;7.21;89.75
15529;BME280;7866;52.280;9.500;2022-11-24T01:08:56;99226.75;;;7.23;90.33
15529;BME280;7866;52.280;9.500;2022-11-24T01:13:58;99233.19;;;7.28;89.84
15529;BME280;7866;52.280;9.500;2022-11-24T01:19:01;99231.66;;;7.34;90.12
15529;BME280;7866;52.280;9.500;2022-11-24T01:24:04;99233.50;;;7.33;89.70
15529;BME280;7866;52.280;9.500;2022-11-24T01:29:06;99236.06;;;7.27;89.85
15529;BME280;7866;52.280;9.500;2022-11-24T01:34:09;99236.59;;;7.45;90.69
15529;BME280;7866;52.280;9.500;2022-11-24T01:39:12;99237.25;;;7.47;90.15
15529;BME280;7866;52.280;9.500;2022-11-24T01:44:22;99243.84;;;7.59;89.89
15529;BME280;7866;52.280;9.500;2022-11-24T01:49:32;99253.41;;;7.69;89.81
15529;BME280;7866;52.280;9.500;2022-11-24T01:54:39;99263.19;;;7.76;89.05
15529;BME280;7866;52.280;9.500;2022-11-24T01:59:42;99256.56;;;7.72;88.56
15529;BME280;7866;52.280;9.500;2022-11-24T02:04:46;99268.34;;;7.78;88.97
15529;BME280;7866;52.280;9.500;2022-11-24T02:09:51;99272.69;;;7.79;89.03
15529;BME280;7866;52.280;9.500;2022-11-24T02:14:57;99278.25;;;7.92;89.20
15529;BME280;7866;52.280;9.500;2022-11-24T02:20:02;99284.41;;;7.93;89.05
15529;BME280;7866;52.280;9.500;2022-11-24T02:25:10;99282.28;;;7.88;88.60
15529;BME280;7866;52.280;9.500;2022-11-24T02:30:18;99284.31;;;7.86;88.68
15529;BME280;7866;52.280;9.500;2022-11-24T02:35:20;99295.59;;;7.88;89.01
15529;BME280;7866;52.280;9.500;2022-11-24T02:40:24;99292.94;;;7.88;89.41
15529;BME280;7866;52.280;9.500;2022-11-24T02:45:28;99284.06;;;7.96;88.46
15529;BME280;7866;52.280;9.500;2022-11-24T02:50:31;99287.19;;;7.99;88.20
15529;BME280;7866;52.280;9.500;2022-11-24T02:55:33;99292.88;;;7.96;87.74
15529;BME280;7866;52.280;9.500;2022-11-24T03:00:36;99299.38;;;7.94;87.88
15529;BME280;7866;52.280;9.500;2022-11-24T03:05:38;99311.66;;;8.03;88.49
15529;BME280;7866;52.280;9.500;2022-11-24T03:10:40;99317.41;;;8.14;87.83
15529;BME280;7866;52.280;9.500;2022-11-24T03:15:43;99313.06;;;8.13;87.13
15529;BME280;7866;52.280;9.500;2022-11-24T03:20:45;99312.00;;;8.23;87.38
15529;BME280;7866;52.280;9.500;2022-11-24T03:25:46;99319.75;;;8.09;87.39
15529;BME280;7866;52.280;9.500;2022-11-24T03:30:50;99320.50;;;8.03;88.37
15529;BME280;7866;52.280;9.500;2022-11-24T03:35:51;99331.28;;;8.10;88.49
15529;BME280;7866;52.280;9.500;2022-11-24T03:40:53;99328.78;;;8.08;88.44
15529;BME280;7866;52.280;9.500;2022-11-24T03:45:56;99338.75;;;8.14;88.25
15529;BME280;7866;52.280;9.500;2022-11-24T03:50:59;99338.25;;;8.11;88.31
15529;BME280;7866;52.280;9.500;2022-11-24T03:56:02;99342.78;;;8.10;88.20
15529;BME280;7866;52.280;9.500;2022-11-24T04:01:05;99345.59;;;8.09;88.52
15529;BME280;7866;52.280;9.500;2022-11-24T04:06:07;99352.72;;;8.17;88.58
15529;BME280;7866;52.280;9.500;2022-11-24T04:11:09;99348.41;;;8.15;88.32
15529;BME280;7866;52.280;9.500;2022-11-24T04:16:33;99355.44;;;8.08;88.27
15529;BME280;7866;52.280;9.500;2022-11-24T04:21:34;99361.44;;;8.10;88.21
15529;BME280;7866;52.280;9.500;2022-11-24T04:26:36;99364.03;;;8.19;88.17
15529;BME280;7866;52.280;9.500;2022-11-24T04:31:39;99370.31;;;8.26;88.04
15529;BME280;7866;52.280;9.500;2022-11-24T04:36:41;99366.72;;;8.19;88.33
15529;BME280;7866;52.280;9.500;2022-11-24T04:41:42;99373.56;;;8.36;88.18
15529;BME280;7866;52.280;9.500;2022-11-24T04:46:45;99373.78;;;8.34;87.09
15529;BME280;7866;52.280;9.500;2022-11-24T04:51:47;99381.94;;;8.33;87.56
15529;BME280;7866;52.280;9.500;2022-11-24T04:56:50;99394.06;;;8.44;87.01
15529;BME280;7866;52.280;9.500;2022-11-24T05:01:53;99387.66;;;8.30;87.37
15529;BME280;7866;52.280;9.500;2022-11-24T05:06:55;99398.41;;;8.36;86.94
15529;BME280;7866;52.280;9.500;2022-11-24T05:11:56;99401.28;;;8.35;87.20
15529;BME280;7866;52.280;9.500;2022-11-24T05:16:59;99414.59;;;8.43;87.24
15529;BME280;7866;52.280;9.500;2022-11-24T05:22:01;99416.03;;;8.23;87.32
15529;BME280;7866;52.280;9.500;2022-11-24T05:27:03;99423.31;;;8.29;87.39
15529;BME280;7866;52.280;9.500;2022-11-24T05:32:06;99440.88;;;8.23;87.67
15529;BME280;7866;52.280;9.500;2022-11-24T05:37:07;99455.72;;;8.18;87.90
15529;BME280;7866;52.280;9.500;2022-11-24T05:42:09;99446.59;;;8.12;88.05
15529;BME280;7866;52.280;9.500;2022-11-24T05:47:30;99455.25;;;8.14;88.47
15529;BME280;7866;52.280;9.500;2022-11-24T05:52:32;99454.25;;;8.15;87.99
15529;BME280;7866;52.280;9.500;2022-11-24T05:57:33;99465.47;;;8.02;87.57
15529;BME280;7866;52.280;9.500;2022-11-24T06:02:36;99476.09;;;8.10;88.26
15529;BME280;7866;52.280;9.500;2022-11-24T06:07:38;99474.78;;;8.06;88.18
15529;BME280;7866;52.280;9.500;2022-11-24T06:12:40;99475.63;;;8.07;87.98
15529;BME280;7866;52.280;9.500;2022-11-24T06:17:43;99479.47;;;8.04;88.50
15529;BME280;7866;52.280;9.500;2022-11-24T06:22:44;99480.13;;;8.06;88.59
15529;BME280;7866;52.280;9.500;2022-11-24T06:27:47;99488.78;;;8.08;88.51
15529;BME280;7866;52.280;9.500;2022-11-24T06:32:54;99494.09;;;8.08;88.11
15529;BME280;7866;52.280;9.500;2022-11-24T06:37:55;99486.78;;;8.10;88.54
15529;BME280;7866;52.280;9.500;2022-11-24T06:42:57;99496.38;;;8.20;88.02
15529;BME280;7866;52.280;9.500;2022-11-24T06:48:00;99504.47;;;8.03;88.19
15529;BME280;7866;52.280;9.500;2022-11-24T06:53:02;99513.22;;;8.20;88.23
15529;BME280;7866;52.280;9.500;2022-11-24T06:58:04;99503.75;;;8.09;88.33
15529;BME280;7866;52.280;9.500;2022-11-24T07:03:12;99507.69;;;8.22;87.97
15529;BME280;7866;52.280;9.500;2022-11-24T07:08:15;99507.00;;;8.28;87.87
15529;BME280;7866;52.280;9.500;2022-11-24T07:13:17;99506.31;;;8.34;87.98
15529;BME280;7866;52.280;9.500;2022-11-24T07:18:20;99507.78;;;8.36;87.62
15529;BME280;7866;52.280;9.500;2022-11-24T07:23:21;99533.50;;;8.37;87.44
15529;BME280;7866;52.280;9.500;2022-11-24T07:28:23;99535.78;;;8.49;86.73
15529;BME280;7866;52.280;9.500;2022-11-24T07:33:26;99540.22;;;8.56;86.67
15529;BME280;7866;52.280;9.500;2022-11-24T07:38:28;99547.72;;;8.61;86.59
15529;BME280;7866;52.280;9.500;2022-11-24T07:43:31;99550.22;;;8.62;86.28
15529;BME280;7866;52.280;9.500;2022-11-24T07:48:34;99562.84;;;8.69;85.64
15529;BME280;7866;52.280;9.500;2022-11-24T07:53:36;99562.75;;;8.62;85.73
15529;BME280;7866;52.280;9.500;2022-11-24T07:58:38;99578.72;;;8.70;85.47
15529;BME280;7866;52.280;9.500;2022-11-24T08:03:41;99584.91;;;8.62;85.63
15529;BME280;7866;52.280;9.500;2022-11-24T08:08:43;99595.16;;;8.51;85.91
15529;BME280;7866;52.280;9.500;2022-11-24T08:13:45;99595.75;;;8.61;86.30
15529;BME280;7866;52.280;9.500;2022-11-24T08:18:52;99605.75;;;8.67;86.44
15529;BME280;7866;52.280;9.500;2022-11-24T08:23:54;99605.22;;;8.72;86.27
15529;BME280;7866;52.280;9.500;2022-11-24T08:28:57;99608.19;;;8.77;85.96
15529;BME280;7866;52.280;9.500;2022-11-24T08:34:01;99609.53;;;8.73;85.85
15529;BME280;7866;52.280;9.500;2022-11-24T08:39:03;99614.03;;;8.72;85.75
15529;BME280;7866;52.280;9.500;2022-11-24T08:44:05;99612.97;;;8.81;86.23
15529;BME280;7866;52.280;9.500;2022-11-24T08:49:09;99622.63;;;8.91;86.04
15529;BME280;7866;52.280;9.500;2022-11-24T08:54:10;99627.19;;;9.05;85.38
15529;BME280;7866;52.280;9.500;2022-11-24T08:59:14;99640.81;;;9.18;85.20
15529;BME280;7866;52.280;9.500;2022-11-24T09:04:17;99640.56;;;9.28;84.76
15529;BME280;7866;52.280;9.500;2022-11-24T09:09:19;99639.41;;;9.30;83.91
15529;BME280;7866;52.280;9.500;2022-11-24T09:14:21;99649.31;;;9.22;84.84
15529;BME280;7866;52.280;9.500;2022-11-24T09:19:24;99660.25;;;9.35;85.03
15529;BME280;7866;52.280;9.500;2022-11-24T09:24:26;99668.91;;;9.60;83.90
15529;BME280;7866;52.280;9.500;2022-11-24T09:29:27;99668.59;;;9.55;83.56
15529;BME280;7866;52.280;9.500;2022-11-24T09:34:30;99670.88;;;9.43;83.81
15529;BME280;7866;52.280;9.500;2022-11-24T09:39:32;99680.72;;;9.43;84.54
15529;BME280;7866;52.280;9.500;2022-11-24T09:50:09;99668.47;;;9.71;84.25
15529;BME280;7866;52.280;9.500;2022-11-24T09:55:30;99672.50;;;9.90;83.18
15529;BME280;7866;52.280;9.500;2022-11-24T10:00:33;99673.38;;;10.05;82.57
15529;BME280;7866;52.280;9.500;2022-11-24T10:05:37;99667.81;;;10.07;82.52
15529;BME280;7866;52.280;9.500;2022-11-24T10:10:43;99675.19;;;10.05;82.79
15529;BME280;7866;52.280;9.500;2022-11-24T10:15:55;99681.47;;;10.12;82.95
15529;BME280;7866;52.280;9.500;2022-11-24T10:21:10;99675.72;;;10.00;82.14
15529;BME280;7866;52.280;9.500;2022-11-24T10:26:17;99679.31;;;9.93;83.58
15529;BME280;7866;52.280;9.500;2022-11-24T10:31:23;99676.22;;;9.81;83.16
15529;BME280;7866;52.280;9.500;2022-11-24T10:36:31;99685.16;;;9.73;83.93
15529;BME280;7866;52.280;9.500;2022-11-24T10:41:42;99678.28;;;9.79;84.03
15529;BME280;7866;52.280;9.500;2022-11-24T10:46:47;99686.56;;;9.84;83.41
15529;BME280;7866;52.280;9.500;2022-11-24T10:51:58;99698.16;;;9.99;83.33
15529;BME280;7866;52.280;9.500;2022-11-24T10:57:05;99699.72;;;10.08;82.53
15529;BME280;7866;52.280;9.500;2022-11-24T11:02:29;99704.00;;;10.18;81.68
15529;BME280;7866;52.280;9.500;2022-11-24T11:07:32;99706.75;;;10.24;81.95
15529;BME280;7866;52.280;9.500;2022-11-24T11:12:34;99719.50;;;10.22;82.01
15529;BME280;7866;52.280;9.500;2022-11-24T11:17:37;99727.22;;;10.25;81.85
15529;BME280;7866;52.280;9.500;2022-11-24T11:22:42;99725.66;;;10.31;81.31
15529;BME280;7866;52.280;9.500;2022-11-24T11:27:44;99740.50;;;10.33;80.83
15529;BME280;7866;52.280;9.500;2022-11-24T11:32:54;99744.28;;;10.39;81.30
15529;BME280;7866;52.280;9.500;2022-11-24T11:38:00;99756.50;;;10.42;80.82
15529;BME280;7866;52.280;9.500;2022-11-24T11:43:06;99758.31;;;10.41;81.13
15529;BME280;7866;52.280;9.500;2022-11-24T11:48:24;99758.03;;;10.36;80.67
15529;BME280;7866;52.280;9.500;2022-11-24T11:53:33;99765.13;;;10.29;81.06
15529;BME280;7866;52.280;9.500;2022-11-24T11:59:05;99768.88;;;10.20;81.35
15529;BME280;7866;52.280;9.500;2022-11-24T12:04:18;99774.41;;;10.18;81.04
15529;BME280;7866;52.280;9.500;2022-11-24T12:09:30;99783.81;;;10.14;81.37
15529;BME280;7866;52.280;9.500;2022-11-24T12:14:41;99778.16;;;10.09;82.40
15529;BME280;7866;52.280;9.500;2022-11-24T12:19:57;99787.59;;;10.20;81.43
15529;BME280;7866;52.280;9.500;2022-11-24T12:25:21;99795.22;;;10.31;81.31
15529;BME280;7866;52.280;9.500;2022-11-24T12:30:24;99797.72;;;10.32;80.70
15529;BME280;7866;52.280;9.500;2022-11-24T12:35:31;99808.41;;;10.32;81.58
15529;BME280;7866;52.280;9.500;2022-11-24T12:40:48;99810.81;;;10.27;80.59
15529;BME280;7866;52.280;9.500;2022-11-24T12:45:57;99818.75;;;10.12;80.50
15529;BME280;7866;52.280;9.500;2022-11-24T12:51:05;99817.44;;;10.08;80.56
15529;BME280;7866;52.280;9.500;2022-11-24T12:56:14;99824.47;;;10.09;81.49
15529;BME280;7866;52.280;9.500;2022-11-24T13:01:27;99824.47;;;10.09;80.83
15529;BME280;7866;52.280;9.500;2022-11-24T13:06:37;99834.72;;;10.06;81.14
15529;BME280;7866;52.280;9.500;2022-11-24T13:11:45;99843.25;;;10.01;81.29
15529;BME280;7866;52.280;9.500;2022-11-24T13:16:50;99839.63;;;9.94;81.82
15529;BME280;7866;52.280;9.500;2022-11-24T13:22:00;99855.00;;;9.92;81.92
15529;BME280;7866;52.280;9.500;2022-11-24T13:32:55;99870.41;;;9.90;82.41
15529;BME280;7866;52.280;9.500;2022-11-24T13:37:59;99869.41;;;9.91;81.91
15529;BME280;7866;52.280;9.500;2022-11-24T13:43:20;99871.78;;;9.86;81.71
15529;BME280;7866;52.280;9.500;2022-11-24T13:48:54;99872.59;;;9.86;81.70
15529;BME280;7866;52.280;9.500;2022-11-24T13:54:00;99884.66;;;9.82;82.09
15529;BME280;7866;52.280;9.500;2022-11-24T13:59:14;99884.00;;;9.80;81.96
15529;BME280;7866;52.280;9.500;2022-11-24T14:04:20;99895.53;;;9.81;82.54
15529;BME280;7866;52.280;9.500;2022-11-24T14:09:27;99910.28;;;9.69;82.79
15529;BME280;7866;52.280;9.500;2022-11-24T14:14:31;99908.81;;;9.66;83.45
15529;BME280;7866;52.280;9.500;2022-11-24T14:19:34;99905.19;;;9.51;83.62
15529;BME280;7866;52.280;9.500;2022-11-24T14:24:36;99905.53;;;9.48;84.27
15529;BME280;7866;52.280;9.500;2022-11-24T14:29:50;99902.41;;;9.36;84.51
15529;BME280;7866;52.280;9.500;2022-11-24T14:34:54;99907.41;;;9.39;84.86
15529;BME280;7866;52.280;9.500;2022-11-24T14:39:56;99910.41;;;9.36;84.69
15529;BME280;7866;52.280;9.500;2022-11-24T14:44:59;99919.59;;;9.33;85.18
15529;BME280;7866;52.280;9.500;2022-11-24T14:50:10;99937.16;;;9.28;85.34
15529;BME280;7866;52.280;9.500;2022-11-24T14:55:24;99944.38;;;9.19;85.65
15529;BME280;7866;52.280;9.500;2022-11-24T15:00:28;99941.72;;;9.11;86.18
15529;BME280;7866;52.280;9.500;2022-11-24T15:05:50;99944.53;;;9.09;86.16
15529;BME280;7866;52.280;9.500;2022-11-24T15:11:00;99942.56;;;9.03;86.28
15529;BME280;7866;52.280;9.500;2022-11-24T15:16:04;99956.25;;;8.92;86.62
15529;BME280;7866;52.280;9.500;2022-11-24T15:21:09;99958.09;;;8.92;86.77
15529;BME280;7866;52.280;9.500;2022-11-24T15:26:23;99957.09;;;8.84;86.68
15529;BME280;7866;52.280;9.500;2022-11-24T15:31:25;99955.44;;;8.75;87.18
15529;BME280;7866;52.280;9.500;2022-11-24T15:36:28;99955.09;;;8.70;87.40
15529;BME280;7866;52.280;9.500;2022-11-24T15:41:31;99968.44;;;8.62;87.59
15529;BME280;7866;52.280;9.500;2022-11-24T15:46:33;99974.25;;;8.49;88.04
15529;BME280;7866;52.280;9.500;2022-11-24T15:51:41;99981.91;;;8.44;88.30
15529;BME280;7866;52.280;9.500;2022-11-24T15:56:43;99983.94;;;8.42;88.48
15529;BME280;7866;52.280;9.500;2022-11-24T16:01:45;99996.78;;;8.47;88.74
15529;BME280;7866;52.280;9.500;2022-11-24T16:06:50;99999.97;;;8.50;88.05
15529;BME280;7866;52.280;9.500;2022-11-24T16:11:51;100007.59;;;8.45;87.61
15529;BME280;7866;52.280;9.500;2022-11-24T16:16:53;100012.13;;;8.02;87.63
15529;BME280;7866;52.280;9.500;2022-11-24T16:21:56;100015.19;;;7.81;88.45
15529;BME280;7866;52.280;9.500;2022-11-24T16:26:58;100012.25;;;7.58;89.43
15529;BME280;7866;52.280;9.500;2022-11-24T16:31:59;100008.38;;;7.53;90.47
15529;BME280;7866;52.280;9.500;2022-11-24T16:37:02;100013.06;;;7.33;90.93
15529;BME280;7866;52.280;9.500;2022-11-24T16:42:04;100021.22;;;7.31;91.60
15529;BME280;7866;52.280;9.500;2022-11-24T16:47:06;100019.34;;;7.24;91.52
15529;BME280;7866;52.280;9.500;2022-11-24T16:52:09;100030.16;;;7.48;92.69
15529;BME280;7866;52.280;9.500;2022-11-24T16:57:11;100034.66;;;7.48;92.36
15529;BME280;7866;52.280;9.500;2022-11-24T17:02:12;100030.47;;;7.45;91.77
15529;BME280;7866;52.280;9.500;2022-11-24T17:07:15;100036.97;;;7.43;92.01
15529;BME280;7866;52.280;9.500;2022-11-24T17:12:17;100038.50;;;7.53;91.84
15529;BME280;7866;52.280;9.500;2022-11-24T17:17:19;100043.44;;;7.40;91.62
15529;BME280;7866;52.280;9.500;2022-11-24T17:22:22;100042.47;;;7.49;91.58
15529;BME280;7866;52.280;9.500;2022-11-24T17:27:23;100043.84;;;7.27;91.05
15529;BME280;7866;52.280;9.500;2022-11-24T17:32:25;100052.47;;;7.03;91.16
15529;BME280;7866;52.280;9.500;2022-11-24T17:37:28;100057.63;;;7.05;92.07
15529;BME280;7866;52.280;9.500;2022-11-24T17:42:31;100053.91;;;7.15;92.22
15529;BME280;7866;52.280;9.500;2022-11-24T17:47:32;100060.34;;;7.13;92.30
15529;BME280;7866;52.280;9.500;2022-11-24T17:52:35;100054.13;;;7.22;92.45
15529;BME280;7866;52.280;9.500;2022-11-24T17:57:37;100061.66;;;7.27;92.46
15529;BME280;7866;52.280;9.500;2022-11-24T18:02:39;100059.97;;;7.26;92.54
15529;BME280;7866;52.280;9.500;2022-11-24T18:07:42;100067.75;;;7.19;92.24
15529;BME280;7866;52.280;9.500;2022-11-24T18:12:43;100063.25;;;7.02;91.88
15529;BME280;7866;52.280;9.500;2022-11-24T18:17:45;100057.72;;;6.95;92.00
15529;BME280;7866;52.280;9.500;2022-11-24T18:22:48;100059.53;;;6.77;92.70
15529;BME280;7866;52.280;9.500;2022-11-24T18:27:50;100060.44;;;6.68;93.26
15529;BME280;7866;52.280;9.500;2022-11-24T18:32:51;100074.25;;;6.53;93.36
15529;BME280;7866;52.280;9.500;2022-11-24T18:37:54;100067.53;;;6.59;93.98
15529;BME280;7866;52.280;9.500;2022-11-24T18:42:56;100068.66;;;6.92;94.96
15529;BME280;7866;52.280;9.500;2022-11-24T18:47:58;100069.88;;;6.80;93.91
15529;BME280;7866;52.280;9.500;2022-11-24T18:53:01;100066.38;;;6.97;94.32
15529;BME280;7866;52.280;9.500;2022-11-24T18:58:03;100068.75;;;7.00;94.39
15529;BME280;7866;52.280;9.500;2022-11-24T19:03:04;100063.06;;;6.95;92.94
15529;BME280;7866;52.280;9.500;2022-11-24T19:08:07;100065.78;;;6.68;92.42
15529;BME280;7866;52.280;9.500;2022-11-24T19:13:09;100080.66;;;6.60;93.26
15529;BME280;7866;52.280;9.500;2022-11-24T19:18:11;100072.09;;;6.66;93.33
15529;BME280;7866;52.280;9.500;2022-11-24T19:23:14;100076.28;;;6.41;92.89
15529;BME280;7866;52.280;9.500;2022-11-24T19:28:17;100071.28;;;6.38;94.16
15529;BME280;7866;52.280;9.500;2022-11-24T19:33:19;100069.59;;;6.37;94.42
15529;BME280;7866;52.280;9.500;2022-11-24T19:38:24;100081.75;;;6.40;94.46
15529;BME280;7866;52.280;9.500;2022-11-24T19:43:25;100085.31;;;6.58;95.06
15529;BME280;7866;52.280;9.500;2022-11-24T19:48:30;100085.09;;;6.42;93.63
15529;BME280;7866;52.280;9.500;2022-11-24T19:53:33;100090.09;;;6.27;93.79
15529;BME280;7866;52.280;9.500;2022-11-24T19:58:35;100079.22;;;6.21;93.77
15529;BME280;7866;52.280;9.500;2022-11-24T20:03:38;100075.97;;;6.27;94.49
15529;BME280;7866;52.280;9.500;2022-11-24T20:08:41;100085.16;;;6.60;94.77
15529;BME280;7866;52.280;9.500;2022-11-24T20:13:45;100093.22;;;6.68;94.56
15529;BME280;7866;52.280;9.500;2022-11-24T20:18:47;100088.84;;;6.95;93.73
15529;BME280;7866;52.280;9.500;2022-11-24T20:23:53;100084.72;;;6.82;92.33
